createdAt,value
2023-05-05T00:00:34.694Z,18.00
2023-05-05T00:03:24.677Z,18.10
2023-05-05T00:06:13.311Z,18.30
2023-05-05T00:09:01.840Z,18.50
2023-05-05T00:11:50.274Z,18.60
2023-05-05T00:14:38.654Z,18.70
2023-05-05T00:17:28.479Z,18.60
2023-05-05T00:20:16.920Z,18.00
2023-05-05T00:23:05.472Z,18.00
2023-05-05T00:25:54.013Z,18.20
2023-05-05T00:28:42.586Z,18.40
2023-05-05T00:31:31.040Z,18.50
2023-05-05T00:34:21.099Z,18.60
2023-05-05T00:37:09.575Z,18.70
2023-05-05T00:39:58.032Z,18.80
2023-05-05T00:42:48.415Z,18.80
2023-05-05T00:45:39.142Z,18.80
2023-05-05T00:48:27.833Z,18.70
2023-05-05T00:51:19.365Z,18.70
2023-05-05T00:54:07.927Z,18.60
2023-05-05T00:56:56.867Z,18.30
2023-05-05T00:59:47.574Z,18.20
2023-05-05T01:02:36.364Z,18.00
2023-05-05T01:05:28.411Z,18.00
2023-05-05T01:08:30.330Z,18.10
2023-05-05T01:11:27.413Z,18.20
2023-05-05T01:14:18.897Z,18.30
2023-05-05T01:17:15.930Z,18.30
2023-05-05T01:20:13.653Z,18.50
2023-05-05T01:23:07.062Z,18.40
2023-05-05T01:26:12.746Z,18.30
2023-05-05T01:29:10.758Z,18.20
2023-05-05T01:32:04.238Z,18.30
2023-05-05T01:34:59.628Z,18.30
2023-05-05T01:37:52.754Z,18.30
2023-05-05T01:40:45.850Z,18.30
2023-05-05T01:43:36.758Z,18.30
2023-05-05T01:46:26.030Z,18.30
2023-05-05T01:49:17.554Z,18.40
2023-05-05T01:52:08.288Z,18.30
2023-05-05T01:54:58.878Z,18.30
2023-05-05T01:57:48.982Z,18.20
2023-05-05T02:00:38.109Z,18.20
2023-05-05T02:03:28.310Z,18.20
2023-05-05T02:06:20.451Z,18.20
2023-05-05T02:09:12.912Z,18.10
2023-05-05T02:12:03.192Z,18.10
2023-05-05T02:14:53.386Z,18.00
2023-05-05T02:17:44.040Z,18.00
2023-05-05T02:20:33.648Z,18.00
2023-05-05T02:23:23.548Z,18.00
2023-05-05T02:26:15.913Z,18.00
2023-05-05T02:29:07.848Z,17.90
2023-05-05T02:32:01.685Z,17.90
2023-05-05T02:34:51.598Z,17.80
2023-05-05T02:37:41.682Z,17.70
2023-05-05T02:40:35.454Z,17.80
2023-05-05T02:43:25.781Z,17.80
2023-05-05T02:46:14.360Z,17.70
2023-05-05T02:49:02.859Z,17.60
2023-05-05T02:51:51.472Z,17.60
2023-05-05T02:54:39.999Z,17.60
2023-05-05T02:57:36.927Z,17.70
2023-05-05T03:00:34.321Z,17.70
2023-05-05T03:03:31.837Z,17.60
2023-05-05T03:12:03.840Z,16.20
2023-05-05T03:14:56.604Z,16.00
2023-05-05T03:17:47.474Z,16.20
2023-05-05T03:20:36.162Z,16.40
2023-05-05T03:23:24.700Z,16.60
2023-05-05T03:26:13.241Z,16.80
2023-05-05T03:29:01.660Z,16.90
2023-05-05T03:31:51.692Z,17.00
2023-05-05T03:34:40.153Z,17.10
2023-05-05T03:37:28.624Z,17.10
2023-05-05T03:40:17.276Z,16.90
2023-05-05T03:43:05.773Z,16.80
2023-05-05T03:45:54.324Z,16.80
2023-05-05T03:48:44.540Z,16.80
2023-05-05T03:51:33.051Z,16.50
2023-05-05T03:54:21.507Z,16.30
2023-05-05T03:57:10.075Z,16.40
2023-05-05T03:59:58.566Z,16.70
2023-05-05T04:02:47.114Z,16.90
2023-05-05T04:05:37.161Z,17.00
2023-05-05T04:08:25.654Z,17.10
2023-05-05T04:11:14.060Z,17.20
2023-05-05T04:14:02.464Z,17.20
2023-05-05T04:16:51.080Z,17.30
2023-05-05T04:19:39.623Z,17.30
2023-05-05T04:22:29.560Z,17.30
2023-05-05T04:25:18.209Z,17.30
2023-05-05T04:28:06.772Z,17.30
2023-05-05T04:30:55.573Z,17.40
2023-05-05T04:33:44.045Z,17.40
2023-05-05T04:36:32.558Z,17.40
2023-05-05T04:39:22.405Z,17.40
2023-05-05T04:42:11.108Z,17.40
2023-05-05T04:44:59.534Z,17.40
2023-05-05T04:47:48.209Z,17.30
2023-05-05T04:50:37.072Z,17.30
2023-05-05T04:53:25.756Z,17.30
2023-05-05T04:56:15.669Z,17.70
2023-05-05T04:59:04.422Z,17.30
2023-05-05T05:01:52.989Z,17.30
2023-05-05T05:04:41.530Z,17.20
2023-05-05T05:07:30.085Z,17.20
2023-05-05T05:10:18.664Z,17.20
2023-05-05T05:13:09.630Z,17.20
2023-05-05T05:15:59.851Z,17.20
2023-05-05T05:18:48.327Z,17.20
2023-05-05T05:21:36.787Z,17.30
2023-05-05T05:24:25.341Z,17.40
2023-05-05T05:27:13.703Z,17.30
2023-05-05T05:30:04.176Z,17.20
2023-05-05T05:32:52.804Z,17.30
2023-05-05T05:35:41.341Z,17.20
2023-05-05T05:38:29.782Z,17.10
2023-05-05T05:41:18.249Z,17.20
2023-05-05T05:44:06.984Z,17.20
2023-05-05T05:46:56.921Z,17.40
2023-05-05T05:49:45.478Z,17.50
2023-05-05T05:52:36.148Z,17.60
2023-05-05T05:55:24.595Z,17.40
2023-05-05T05:58:13.134Z,17.10
2023-05-05T06:03:52.811Z,17.40
2023-05-05T06:06:41.416Z,17.40
2023-05-05T06:12:18.774Z,17.60
2023-05-05T06:15:08.122Z,17.60
2023-05-05T06:17:56.711Z,17.70
2023-05-05T06:20:46.657Z,17.90
2023-05-05T06:23:35.139Z,18.00
2023-05-05T06:26:23.625Z,18.10
2023-05-05T06:32:01.892Z,18.50
2023-05-05T06:34:50.427Z,18.60
2023-05-05T06:37:40.346Z,18.60
2023-05-05T06:40:28.846Z,18.70
2023-05-05T06:43:17.642Z,18.80
2023-05-05T06:46:06.259Z,18.80
2023-05-05T06:48:54.766Z,18.60
2023-05-05T06:54:33.433Z,19.10
2023-05-05T06:57:21.922Z,19.40
2023-05-05T07:00:12.071Z,19.40
2023-05-05T07:03:00.575Z,19.50
2023-05-05T07:08:37.879Z,20.10
2023-05-05T07:14:16.641Z,20.60
2023-05-05T07:17:05.303Z,20.60
2023-05-05T07:19:55.022Z,20.50
2023-05-05T07:22:43.593Z,20.20
2023-05-05T07:25:32.154Z,21.00
2023-05-05T07:28:22.431Z,21.00
2023-05-05T07:31:10.983Z,20.90
2023-05-05T07:33:59.522Z,21.00
2023-05-05T07:36:48.050Z,21.10
2023-05-05T07:39:36.581Z,21.30
2023-05-05T07:42:25.120Z,21.50
2023-05-05T07:45:15.067Z,21.60
2023-05-05T07:50:53.104Z,21.70
2023-05-05T07:56:31.426Z,22.00
2023-05-05T07:59:19.981Z,22.00
2023-05-05T08:02:09.910Z,22.10
2023-05-05T08:04:58.428Z,22.10
2023-05-05T08:07:47.016Z,21.80
2023-05-05T08:10:35.558Z,22.80
2023-05-05T08:13:24.065Z,21.80
2023-05-05T08:16:13.003Z,21.80
2023-05-05T08:19:06.279Z,21.70
2023-05-05T08:22:00.573Z,21.80
2023-05-05T08:24:49.730Z,21.90
2023-05-05T08:27:39.020Z,22.10
2023-05-05T08:30:27.476Z,22.20
2023-05-05T08:33:16.342Z,22.20
2023-05-05T08:36:06.585Z,22.20
2023-05-05T08:38:55.000Z,22.20
2023-05-05T08:41:43.734Z,22.20
2023-05-05T08:44:32.311Z,22.20
2023-05-05T08:47:21.105Z,22.30
2023-05-05T08:50:12.218Z,22.40
2023-05-05T09:01:37.352Z,22.60
2023-05-05T09:04:26.905Z,22.80
2023-05-05T09:07:15.658Z,22.80
2023-05-05T09:10:07.039Z,22.80
2023-05-05T09:12:55.709Z,22.90
2023-05-05T09:15:44.246Z,23.00
2023-05-05T09:18:32.802Z,23.10
2023-05-05T09:21:22.631Z,23.20
2023-05-05T09:24:12.843Z,23.40
2023-05-05T09:27:22.052Z,23.10
2023-05-05T09:30:12.288Z,23.20
2023-05-05T09:33:02.283Z,23.10
2023-05-05T09:35:52.605Z,23.10
2023-05-05T09:41:39.068Z,23.20
2023-05-05T09:44:40.083Z,23.40
2023-05-05T09:47:36.300Z,23.50
2023-05-05T09:50:24.877Z,23.60
2023-05-05T09:53:13.760Z,23.70
2023-05-05T09:56:02.574Z,23.70
2023-05-05T09:58:51.122Z,23.80
2023-05-05T10:01:43.394Z,23.90
2023-05-05T10:04:32.323Z,24.00
2023-05-05T10:07:25.142Z,24.00
2023-05-05T10:10:14.913Z,24.00
2023-05-05T10:13:04.089Z,24.10
2023-05-05T10:15:54.543Z,24.20
2023-05-05T10:18:47.719Z,23.90
2023-05-05T10:24:36.540Z,24.40
2023-05-05T10:33:31.052Z,24.70
2023-05-05T10:36:21.940Z,24.70
2023-05-05T10:39:10.989Z,24.80
2023-05-05T10:42:02.152Z,24.70
2023-05-05T10:44:51.338Z,24.70
2023-05-05T10:50:34.870Z,25.00
2023-05-05T10:53:30.104Z,25.20
2023-05-05T10:56:26.570Z,25.40
2023-05-05T10:59:44.159Z,25.50
2023-05-05T11:02:32.729Z,25.60
2023-05-05T11:05:22.544Z,25.80
2023-05-05T11:14:21.298Z,26.10
2023-05-05T11:17:45.340Z,26.10
2023-05-05T11:23:41.336Z,26.50
2023-05-05T11:26:53.067Z,26.60
2023-05-05T11:30:07.029Z,26.80
2023-05-05T11:33:25.917Z,26.90
2023-05-05T11:36:15.926Z,26.70
2023-05-05T11:39:12.939Z,26.70
2023-05-05T11:42:27.462Z,26.90
2023-05-05T11:45:25.644Z,27.10
2023-05-05T11:48:26.839Z,27.30
2023-05-05T13:13:59.094Z,29.00
2023-05-05T13:16:47.626Z,29.10
2023-05-05T13:19:41.892Z,29.00
2023-05-05T13:22:30.765Z,29.00
2023-05-05T13:25:20.991Z,28.90
2023-05-05T13:28:09.453Z,29.00
2023-05-05T13:30:58.812Z,28.90
2023-05-05T13:33:47.501Z,28.90
2023-05-05T13:36:36.117Z,28.80
2023-05-05T13:39:24.603Z,28.30
2023-05-05T13:42:14.386Z,28.10
2023-05-05T13:45:02.831Z,28.30
2023-05-05T13:47:51.378Z,28.40
2023-05-05T13:50:39.963Z,28.40
2023-05-05T13:53:28.567Z,28.50
2023-05-05T13:56:18.211Z,28.60
2023-05-05T13:59:08.246Z,28.60
2023-05-05T14:01:56.755Z,28.70
2023-05-05T14:04:45.248Z,28.70
2023-05-05T14:07:33.815Z,28.70
2023-05-05T14:10:22.291Z,28.70
2023-05-05T14:13:10.946Z,28.80
2023-05-05T14:16:00.976Z,28.80
2023-05-05T14:18:49.496Z,28.70
2023-05-05T14:21:37.999Z,28.50
2023-05-05T14:24:27.337Z,28.40
2023-05-05T14:27:16.101Z,28.30
2023-05-05T14:30:05.079Z,28.30
2023-05-05T14:32:54.967Z,28.50
2023-05-05T14:35:43.595Z,28.40
2023-05-05T14:38:32.184Z,28.40
2023-05-05T14:41:20.802Z,28.10
2023-05-05T14:44:09.273Z,27.90
2023-05-05T14:46:58.124Z,27.80
2023-05-05T14:49:48.141Z,27.90
2023-05-05T14:52:37.134Z,28.20
2023-05-05T14:55:26.453Z,28.30
2023-05-05T14:58:14.937Z,28.20
2023-05-05T15:01:03.488Z,28.10
2023-05-05T15:03:52.811Z,28.00
2023-05-05T15:06:42.731Z,27.70
2023-05-05T15:09:31.257Z,27.60
2023-05-05T15:12:19.690Z,27.40
2023-05-05T15:15:09.474Z,27.50
2023-05-05T15:17:58.191Z,27.60
2023-05-05T15:20:46.732Z,27.70
2023-05-05T15:23:36.518Z,27.80
2023-05-05T15:26:25.101Z,27.80
2023-05-05T15:29:13.742Z,27.80
2023-05-05T15:32:02.259Z,27.80
2023-05-05T15:34:50.772Z,27.70
2023-05-05T15:37:39.310Z,27.70
2023-05-05T15:40:29.202Z,27.70
2023-05-05T15:43:17.634Z,27.60
2023-05-05T15:46:06.128Z,27.50
2023-05-05T15:48:54.695Z,27.40
2023-05-05T15:51:43.173Z,27.40
2023-05-05T15:54:31.718Z,27.30
2023-05-05T15:57:21.675Z,27.10
2023-05-05T16:00:11.201Z,27.00
2023-05-05T16:02:59.886Z,27.00
2023-05-05T16:05:48.401Z,27.00
2023-05-05T16:08:37.261Z,27.10
2023-05-05T16:11:25.884Z,27.00
2023-05-05T16:14:16.004Z,27.00
2023-05-05T16:17:04.572Z,27.00
2023-05-05T16:19:53.174Z,26.90
2023-05-05T16:22:41.732Z,26.80
2023-05-05T16:25:30.188Z,26.70
2023-05-05T16:28:18.669Z,26.70
2023-05-05T16:33:59.420Z,26.50
2023-05-05T16:36:47.884Z,26.40
2023-05-05T16:39:40.347Z,26.30
2023-05-05T16:42:28.958Z,26.20
2023-05-05T16:45:17.666Z,26.20
2023-05-05T16:48:09.163Z,26.10
2023-05-05T16:50:58.507Z,26.10
2023-05-05T16:53:48.911Z,26.10
2023-05-05T16:56:37.727Z,26.00
2023-05-05T17:22:00.713Z,25.40
2023-05-05T17:24:49.237Z,25.40
2023-05-05T17:27:38.303Z,25.40
2023-05-05T17:30:26.919Z,25.30
2023-05-05T17:33:18.298Z,25.30
2023-05-05T17:36:07.725Z,25.20
2023-05-05T17:38:57.597Z,25.20
2023-05-05T17:41:46.411Z,25.10
2023-05-05T17:44:34.864Z,25.20
2023-05-05T17:47:24.272Z,25.10
2023-05-05T17:50:13.132Z,24.90
2023-05-05T17:53:01.698Z,25.00
2023-05-05T17:55:51.603Z,25.00
2023-05-05T17:58:40.153Z,24.90
2023-05-05T18:01:28.910Z,24.80
2023-05-05T18:04:17.573Z,24.80
2023-05-05T18:07:06.494Z,24.80
2023-05-05T18:09:55.131Z,24.60
2023-05-05T18:12:45.204Z,24.70
2023-05-05T18:15:34.013Z,24.70
2023-05-05T18:18:22.588Z,24.70
2023-05-05T18:21:12.341Z,24.70
2023-05-05T18:24:11.610Z,24.60
2023-05-05T18:27:07.862Z,24.50
2023-05-05T18:29:57.740Z,24.50
2023-05-05T18:32:46.310Z,24.40
2023-05-05T18:35:34.924Z,24.40
2023-05-05T18:38:23.488Z,24.40
2023-05-05T18:41:12.016Z,24.20
2023-05-05T18:44:00.507Z,24.20
2023-05-05T18:46:50.430Z,24.20
2023-05-05T18:49:39.406Z,24.10
2023-05-05T18:52:28.039Z,24.10
2023-05-05T19:03:47.700Z,23.80
2023-05-05T19:37:38.451Z,23.60
2023-05-05T19:40:26.970Z,23.60
2023-05-05T19:48:53.142Z,23.40
2023-05-05T19:54:32.231Z,23.30
2023-05-05T19:57:20.754Z,23.20
2023-05-05T20:00:10.955Z,23.20
2023-05-05T20:02:59.947Z,23.30
2023-05-05T20:05:48.580Z,23.20
2023-05-05T20:08:37.268Z,23.10
2023-05-05T20:14:16.184Z,22.90
2023-05-05T20:17:04.706Z,22.90
2023-05-05T20:19:54.284Z,22.90
2023-05-05T20:22:42.816Z,22.60
2023-05-05T20:25:32.123Z,22.60
2023-05-05T20:28:22.135Z,22.70
2023-05-05T20:31:10.974Z,22.70
2023-05-05T20:33:59.601Z,22.50
2023-05-05T20:36:48.236Z,22.40
2023-05-05T20:39:36.738Z,22.40
2023-05-05T20:42:25.686Z,22.50
2023-05-05T20:45:15.676Z,22.40
2023-05-05T20:48:05.660Z,21.90
2023-05-05T20:50:54.203Z,21.80
2023-05-05T20:53:42.744Z,21.60
2023-05-05T20:59:20.054Z,21.40
2023-05-05T21:07:54.296Z,21.00
2023-05-05T21:10:43.051Z,21.30
2023-05-05T21:22:02.163Z,21.10
2023-05-05T21:36:07.864Z,20.00
2023-05-05T21:38:58.403Z,19.90
2023-05-05T21:41:48.404Z,20.10
2023-05-05T21:44:36.846Z,20.30
2023-05-05T21:47:25.480Z,20.10
2023-05-05T21:50:14.048Z,20.10
2023-05-05T21:53:03.916Z,20.00
2023-05-05T21:58:41.676Z,20.00
2023-05-05T22:01:30.219Z,20.00
2023-05-05T22:29:52.841Z,20.30
2023-05-05T22:32:43.460Z,19.80
2023-05-05T22:38:21.156Z,19.30
2023-05-05T22:41:09.634Z,19.40
2023-05-05T22:46:48.252Z,19.20
2023-05-05T22:49:36.900Z,19.30
2023-05-05T23:06:34.021Z,19.50
2023-05-05T23:09:22.554Z,19.70
2023-05-05T23:14:59.861Z,20.00
2023-05-05T23:17:49.978Z,20.20
2023-05-05T23:20:38.593Z,20.20
2023-05-05T23:23:27.121Z,20.30
2023-05-05T23:26:15.566Z,20.30
2023-05-05T23:29:04.169Z,20.30
2023-05-05T23:31:52.732Z,20.30
2023-05-05T23:37:31.394Z,20.20
2023-05-05T23:40:19.923Z,20.10
2023-05-05T23:43:08.572Z,20.20
2023-05-05T23:45:57.055Z,20.20
2023-05-05T23:48:45.585Z,19.80
2023-05-05T23:51:35.632Z,19.60
2023-05-05T23:54:24.132Z,19.70
2023-05-05T23:57:12.748Z,19.90
